Time;durP1;ratioP1;P1;durP2;ratioP2;P2;SDS_P1;SDS_P2;PMS_P1;PMS_P2;Temp;Humidity;BMP_temperature;BMP_pressure;BME280_temperature;BME280_humidity;BME280_pressure;Samples;Min_cycle;Max_cycle;Signal;HPM_P1;HPM_P2
2022/11/18 00:01:15;;;;;;;7.25;2.80;;;;;;;6.95;100.00;99434.28;5050149;28;20116;-68
2022/11/18 00:03:41;;;;;;;5.00;2.72;;;;;;;6.91;100.00;99433.06;5050047;28;20025;-68
2022/11/18 00:06:14;;;;;;;6.30;2.63;;;;;;;6.88;100.00;99433.47;5050018;28;20124;-68
2022/11/18 00:08:39;;;;;;;6.65;3.13;;;;;;;6.85;100.00;99433.91;5049853;28;20035;-68
2022/11/18 00:11:12;;;;;;;6.05;3.15;;;;;;;6.84;100.00;99437.59;5049983;28;20033;-68
2022/11/18 00:16:22;;;;;;;5.93;2.30;;;;;;;6.79;100.00;99435.53;5050208;28;20076;-68
2022/11/18 00:18:48;;;;;;;6.47;2.88;;;;;;;6.77;100.00;99445.53;5049786;28;20377;-68
2022/11/18 00:21:13;;;;;;;6.13;3.55;;;;;;;6.72;100.00;99432.09;5049268;28;20116;-67
2022/11/18 00:23:39;;;;;;;6.05;2.33;;;;;;;6.72;100.00;99447.97;5049644;28;20033;-68
2022/11/18 00:26:11;;;;;;;7.25;2.40;;;;;;;6.74;100.00;99450.44;5049644;28;20486;-68
2022/11/18 00:28:36;;;;;;;5.47;2.35;;;;;;;6.73;100.00;99456.75;5049814;28;20091;-68
2022/11/18 00:31:07;;;;;;;6.07;2.60;;;;;;;6.67;100.00;99449.63;5049766;28;20041;-68
2022/11/18 00:33:32;;;;;;;5.47;2.42;;;;;;;6.67;100.00;99454.94;5049709;28;20057;-68
2022/11/18 00:35:58;;;;;;;4.65;2.38;;;;;;;6.66;100.00;99462.06;5049277;28;20057;-67
2022/11/18 00:38:25;;;;;;;6.15;2.60;;;;;;;6.65;100.00;99459.59;5049176;28;20028;-68
2022/11/18 00:41:01;;;;;;;7.13;2.75;;;;;;;6.67;100.00;99462.88;5049426;28;20391;-67
2022/11/18 00:43:26;;;;;;;5.65;2.55;;;;;;;6.63;100.00;99461.63;5048685;28;20036;-70
2022/11/18 00:45:52;;;;;;;6.45;2.30;;;;;;;6.65;100.00;99473.66;5049012;28;20025;-70
2022/11/18 00:48:20;;;;;;;4.40;2.20;;;;;;;6.67;100.00;99470.81;5049502;28;20037;-70
2022/11/18 00:50:53;;;;;;;4.05;1.90;;;;;;;6.69;100.00;99474.91;5049466;28;20017;-70
2022/11/18 00:53:19;;;;;;;4.25;2.20;;;;;;;6.78;100.00;99480.78;5048276;28;20037;-70
2022/11/18 00:55:45;;;;;;;11.55;2.70;;;;;;;6.79;100.00;99472.66;5049284;28;20076;-69
2022/11/18 00:58:13;;;;;;;6.00;2.75;;;;;;;6.91;100.00;99479.97;5049486;28;20519;-70
2022/11/18 01:00:43;;;;;;;5.97;2.70;;;;;;;6.89;100.00;99474.88;5049454;28;20079;-70
2022/11/18 01:03:10;;;;;;;7.55;2.60;;;;;;;7.02;100.00;99481.97;5049336;28;20021;-70
2022/11/18 01:05:36;;;;;;;6.25;2.42;;;;;;;7.07;100.00;99484.81;5049231;28;20120;-70
2022/11/18 01:08:02;;;;;;;8.55;2.63;;;;;;;7.12;100.00;99492.97;5049297;28;20947;-70
2022/11/18 01:10:27;;;;;;;6.20;2.72;;;;;;;7.16;100.00;99488.06;5048067;28;20033;-70
2022/11/18 01:15:42;;;;;;;7.15;2.63;;;;;;;7.30;100.00;99502.09;5048550;28;20036;-70
2022/11/18 01:18:08;;;;;;;7.43;3.45;;;;;;;7.34;100.00;99508.63;5049329;28;20040;-70
2022/11/18 01:20:34;;;;;;;8.07;2.53;;;;;;;7.38;100.00;99515.13;5049265;28;20392;-70
2022/11/18 01:23:00;;;;;;;5.82;2.70;;;;;;;7.39;100.00;99503.53;5049341;28;20036;-69
2022/11/18 01:25:26;;;;;;;7.82;2.40;;;;;;;7.44;100.00;99509.81;5049646;28;20028;-70
2022/11/18 01:27:51;;;;;;;7.20;2.65;;;;;;;7.46;100.00;99505.09;5049159;28;20056;-70
2022/11/18 01:30:17;;;;;;;4.88;2.78;;;;;;;7.49;100.00;99519.78;5049050;28;20033;-70
2022/11/18 01:32:43;;;;;;;6.63;3.40;;;;;;;7.56;100.00;99517.13;5047751;28;20039;-70
2022/11/18 01:35:09;;;;;;;4.60;2.20;;;;;;;7.56;100.00;99525.09;5049117;28;20447;-70
2022/11/18 01:37:34;;;;;;;4.95;2.10;;;;;;;7.58;100.00;99517.72;5048802;28;20479;-70
2022/11/18 01:40:00;;;;;;;10.18;3.83;;;;;;;7.59;100.00;99522.00;5048448;28;20082;-70
2022/11/18 01:42:25;;;;;;;6.35;2.60;;;;;;;7.67;100.00;99540.34;5048874;28;20033;-70
2022/11/18 01:45:23;;;;;;;4.57;2.40;;;;;;;7.69;100.00;99535.63;5048208;28;20068;-70
2022/11/18 01:48:03;;;;;;;6.78;2.75;;;;;;;7.73;100.00;99538.69;5048217;28;20028;-70
2022/11/18 01:50:29;;;;;;;5.63;2.88;;;;;;;7.74;100.00;99543.78;5048978;28;20469;-70
2022/11/18 01:53:00;;;;;;;4.40;2.10;;;;;;;7.74;100.00;99538.47;5048769;28;20028;-70
2022/11/18 01:55:30;;;;;;;6.40;2.35;;;;;;;7.80;100.00;99548.25;5050487;28;20041;-70
2022/11/18 01:58:11;;;;;;;6.57;2.50;;;;;;;7.83;100.00;99550.50;5052579;28;20384;-69
2022/11/18 02:00:37;;;;;;;5.13;2.05;;;;;;;7.86;100.00;99550.06;5052405;28;20024;-70
2022/11/18 02:03:03;;;;;;;3.83;2.33;;;;;;;7.88;100.00;99549.84;5052325;28;20037;-69
2022/11/18 02:05:30;;;;;;;5.07;1.98;;;;;;;7.90;100.00;99553.91;5052319;28;20037;-70
2022/11/18 02:07:56;;;;;;;5.22;2.28;;;;;;;7.90;100.00;99556.56;5052230;28;20032;-70
2022/11/18 02:10:23;;;;;;;9.93;3.72;;;;;;;7.88;100.00;99553.31;5052015;28;20399;-70
2022/11/18 02:12:51;;;;;;;6.85;2.17;;;;;;;7.95;100.00;99560.44;5052311;28;20107;-70
2022/11/18 02:15:25;;;;;;;17.05;2.83;;;;;;;7.99;100.00;99566.94;5051570;28;20082;-70
2022/11/18 02:18:11;;;;;;;4.38;2.30;;;;;;;7.99;100.00;99561.63;5051872;28;20029;-70
2022/11/18 02:20:43;;;;;;;5.85;2.67;;;;;;;7.94;100.00;99559.66;5052123;28;20021;-70
2022/11/18 02:23:49;;;;;;;6.20;2.33;;;;;;;8.03;100.00;99568.16;5051451;28;20029;-70
2022/11/18 02:26:42;;;;;;;10.48;2.10;;;;;;;8.00;100.00;99563.28;5041389;28;20127;-70
2022/11/18 02:29:17;;;;;;;7.05;2.65;;;;;;;8.01;100.00;99570.22;5051949;28;20033;-70
2022/11/18 02:32:00;;;;;;;4.10;1.98;;;;;;;8.04;100.00;99581.25;5051842;28;20029;-70
2022/11/18 02:34:47;;;;;;;5.13;2.10;;;;;;;8.05;100.00;99579.41;5051674;28;20094;-70
2022/11/18 02:37:17;;;;;;;4.85;2.35;;;;;;;8.06;100.00;99579.16;5051652;28;20078;-70
2022/11/18 02:39:58;;;;;;;6.50;2.17;;;;;;;8.08;100.00;99581.63;5051758;28;20040;-70
2022/11/18 02:42:28;;;;;;;6.38;2.95;;;;;;;8.05;100.00;99587.38;5051820;28;20564;-69
2022/11/18 02:44:59;;;;;;;5.45;2.17;;;;;;;8.03;100.00;99581.44;5051510;28;20495;-70
2022/11/18 02:47:28;;;;;;;6.88;2.28;;;;;;;8.05;100.00;99582.06;5050955;28;20029;-70
2022/11/18 02:50:00;;;;;;;4.95;1.90;;;;;;;8.08;100.00;99589.59;5050791;28;20502;-70
2022/11/18 02:52:26;;;;;;;6.95;2.22;;;;;;;8.11;100.00;99591.81;5051495;28;20033;-70
2022/11/18 02:54:54;;;;;;;8.82;2.70;;;;;;;8.12;100.00;99588.97;5051347;28;20049;-70
2022/11/18 02:57:21;;;;;;;4.72;2.22;;;;;;;8.12;100.00;99598.75;5051330;28;20037;-70
2022/11/18 02:59:47;;;;;;;7.78;3.10;;;;;;;8.14;100.00;99591.41;5051246;28;20033;-69
2022/11/18 03:02:17;;;;;;;7.82;2.33;;;;;;;8.12;100.00;99596.09;5051095;28;20036;-67
2022/11/18 03:04:45;;;;;;;5.32;2.97;;;;;;;8.12;100.00;99588.13;5050882;28;20021;-68
2022/11/18 03:07:34;;;;;;;3.47;1.90;;;;;;;8.16;100.00;99594.66;5051148;28;20036;-68
2022/11/18 03:10:01;;;;;;;3.20;2.28;;;;;;;8.17;100.00;99600.78;5050944;28;20033;-67
2022/11/18 03:12:51;;;;;;;4.85;2.35;;;;;;;8.14;100.00;99607.31;5051011;28;20056;-68
2022/11/18 03:15:30;;;;;;;8.73;2.42;;;;;;;8.17;100.00;99609.56;5050784;28;20028;-67
2022/11/18 03:18:18;;;;;;;4.70;2.22;;;;;;;8.17;100.00;99606.91;5051015;28;20028;-68
2022/11/18 03:20:52;;;;;;;3.40;1.90;;;;;;;8.18;100.00;99607.75;5050103;28;20845;-68
2022/11/18 03:23:20;;;;;;;4.45;2.55;;;;;;;8.18;100.00;99613.06;5049056;28;20040;-68
2022/11/18 03:26:03;;;;;;;6.15;2.40;;;;;;;8.17;100.00;99620.19;5050445;28;20028;-68
2022/11/18 03:28:36;;;;;;;3.00;2.00;;;;;;;8.12;100.00;99615.53;5050703;28;20029;-67
2022/11/18 03:31:26;;;;;;;7.45;2.72;;;;;;;8.13;100.00;99627.75;5050770;28;20968;-68
2022/11/18 03:33:58;;;;;;;7.75;3.28;;;;;;;8.15;100.00;99626.72;5049236;28;20357;-68
2022/11/18 03:36:32;;;;;;;6.57;2.03;;;;;;;8.15;100.00;99634.69;5050668;28;20536;-68
2022/11/18 03:39:02;;;;;;;2.58;1.77;;;;;;;8.15;100.00;99640.00;5050535;28;20037;-68
2022/11/18 03:41:30;;;;;;;6.35;2.95;;;;;;;8.13;100.00;99638.38;5049196;28;20021;-67
2022/11/18 03:44:00;;;;;;;3.40;2.35;;;;;;;8.12;100.00;99647.38;5050416;28;20024;-68
2022/11/18 03:46:49;;;;;;;4.30;2.10;;;;;;;8.12;100.00;99635.94;5050286;28;20040;-67
2022/11/18 03:49:34;;;;;;;7.80;2.00;;;;;;;8.09;100.00;99649.63;5049977;28;20024;-68
2022/11/18 03:52:10;;;;;;;4.38;2.45;;;;;;;8.05;100.00;99646.59;5049637;28;20060;-68
2022/11/18 03:54:39;;;;;;;7.38;2.35;;;;;;;8.08;100.00;99656.78;5050061;28;20052;-68
2022/11/18 03:57:39;;;;;;;3.40;2.25;;;;;;;8.09;100.00;99657.59;5050213;28;20052;-68
2022/11/18 04:00:10;;;;;;;2.92;1.90;;;;;;;8.08;100.00;99661.28;5049908;28;20102;-67
2022/11/18 04:02:37;;;;;;;3.87;1.97;;;;;;;8.02;100.00;99665.59;5050072;28;20464;-67
2022/11/18 04:05:05;;;;;;;4.07;2.28;;;;;;;8.04;100.00;99670.69;5049572;28;20021;-67
2022/11/18 04:07:38;;;;;;;5.53;2.47;;;;;;;8.02;100.00;99673.56;5050144;28;20021;-67
2022/11/18 04:10:24;;;;;;;7.60;2.40;;;;;;;8.01;100.00;99665.81;5050163;28;20025;-67
2022/11/18 04:12:52;;;;;;;4.75;2.00;;;;;;;8.04;100.00;99674.19;5050098;28;20056;-68
2022/11/18 04:15:18;;;;;;;6.00;2.28;;;;;;;7.99;100.00;99675.81;5049880;28;20021;-68
2022/11/18 04:17:43;;;;;;;4.65;1.73;;;;;;;7.98;100.00;99677.66;5049364;28;20434;-67
2022/11/18 04:20:20;;;;;;;4.75;2.00;;;;;;;8.03;100.00;99682.34;5049950;28;20028;-67
2022/11/18 04:22:46;;;;;;;4.47;2.05;;;;;;;8.01;100.00;99684.38;5049730;28;20414;-67
2022/11/18 04:25:11;;;;;;;4.97;2.53;;;;;;;8.01;100.00;99692.34;5049758;28;20027;-67
2022/11/18 04:27:37;;;;;;;3.78;2.03;;;;;;;7.99;100.00;99697.88;5049738;28;20025;-67
2022/11/18 04:30:04;;;;;;;6.32;2.10;;;;;;;7.98;100.00;99698.09;5049837;28;20036;-67
2022/11/18 04:32:30;;;;;;;1.95;1.75;;;;;;;7.94;100.00;99699.50;5049698;28;20037;-67
2022/11/18 04:34:55;;;;;;;4.43;2.03;;;;;;;7.88;100.00;99704.63;5049481;28;20033;-67
2022/11/18 04:37:20;;;;;;;3.45;1.92;;;;;;;7.83;100.00;99708.94;5049586;28;20025;-67
2022/11/18 04:39:46;;;;;;;4.97;2.38;;;;;;;7.78;100.00;99712.22;5049511;28;20569;-67
2022/11/18 04:42:11;;;;;;;12.07;3.08;;;;;;;7.73;100.00;99711.19;5049495;28;20035;-67
2022/11/18 04:44:36;;;;;;;5.45;1.95;;;;;;;7.71;100.00;99708.75;5048121;28;20060;-67
2022/11/18 04:47:04;;;;;;;10.23;2.78;;;;;;;7.69;100.00;99713.44;5049562;28;20048;-67
2022/11/18 04:49:30;;;;;;;6.70;2.20;;;;;;;7.69;100.00;99710.78;5049340;28;20100;-67
2022/11/18 04:51:56;;;;;;;13.88;5.28;;;;;;;7.71;100.00;99718.56;5048849;28;20112;-68
2022/11/18 04:54:23;;;;;;;6.13;2.38;;;;;;;7.74;100.00;99715.50;5048836;28;20188;-67
2022/11/18 04:56:49;;;;;;;6.57;3.45;;;;;;;7.69;100.00;99714.25;5049386;28;20028;-67
2022/11/18 04:59:17;;;;;;;7.55;2.70;;;;;;;7.71;100.00;99735.28;5049277;28;20442;-68
2022/11/18 05:01:42;;;;;;;8.52;2.38;;;;;;;7.61;100.00;99722.44;5049399;28;20032;-67
2022/11/18 05:04:12;;;;;;;4.43;2.42;;;;;;;7.64;100.00;99737.94;5049472;28;20116;-68
2022/11/18 05:06:38;;;;;;;4.95;2.88;;;;;;;7.67;100.00;99748.13;5049302;28;20025;-67
2022/11/18 05:09:03;;;;;;;8.23;3.85;;;;;;;7.66;100.00;99743.03;5047870;28;20051;-67
2022/11/18 05:14:13;;;;;;;10.60;2.30;;;;;;;7.64;100.00;99747.75;5048231;28;20464;-67
2022/11/18 05:16:38;;;;;;;7.75;2.63;;;;;;;7.60;100.00;99750.00;5049198;28;20048;-67
2022/11/18 05:19:05;;;;;;;5.13;2.72;;;;;;;7.60;100.00;99751.84;5049290;28;20028;-68
2022/11/18 05:21:30;;;;;;;4.95;2.83;;;;;;;7.64;100.00;99759.16;5049204;28;20025;-68
2022/11/18 05:23:57;;;;;;;3.58;2.35;;;;;;;7.65;100.00;99763.47;5049128;28;20075;-67
2022/11/18 05:26:23;;;;;;;4.57;2.42;;;;;;;7.63;100.00;99754.06;5049145;28;20029;-68
2022/11/18 05:28:48;;;;;;;8.70;2.88;;;;;;;7.60;100.00;99759.81;5049945;28;20468;-67
2022/11/18 05:31:15;;;;;;;5.22;2.42;;;;;;;7.54;100.00;99771.22;5035533;28;20476;-68
2022/11/18 05:33:41;;;;;;;3.67;2.30;;;;;;;7.41;100.00;99766.69;5053352;28;20082;-68
2022/11/18 05:36:09;;;;;;;9.65;3.60;;;;;;;7.37;100.00;99763.66;5052925;28;20460;-68
2022/11/18 05:38:35;;;;;;;3.40;2.20;;;;;;;7.30;100.00;99772.63;5052435;28;20106;-68
2022/11/18 05:41:00;;;;;;;6.90;2.60;;;;;;;7.22;100.00;99778.94;5052720;28;20476;-67
2022/11/18 05:43:27;;;;;;;4.43;2.13;;;;;;;7.15;100.00;99784.22;5052704;28;20025;-67
2022/11/18 05:45:52;;;;;;;8.45;2.45;;;;;;;7.08;100.00;99778.09;5052681;28;20483;-67
2022/11/18 05:48:18;;;;;;;5.53;2.05;;;;;;;7.01;100.00;99780.69;5052299;28;20037;-67
2022/11/18 05:50:49;;;;;;;5.75;2.70;;;;;;;6.95;100.00;99776.22;5052559;28;20910;-68
2022/11/18 05:53:16;;;;;;;8.27;3.45;;;;;;;6.90;100.00;99780.47;5052028;28;20029;-68
2022/11/18 05:55:50;;;;;;;5.60;2.35;;;;;;;6.89;100.00;99792.91;5052158;28;20567;-67
2022/11/18 05:58:16;;;;;;;8.02;3.08;;;;;;;6.84;100.00;99792.69;5052555;28;20068;-67
2022/11/18 06:00:42;;;;;;;5.97;2.72;;;;;;;6.83;100.00;99796.34;5052503;28;20067;-68
2022/11/18 06:03:15;;;;;;;3.65;2.55;;;;;;;6.79;100.00;99800.41;5052488;28;20506;-68
2022/11/18 06:05:41;;;;;;;5.15;2.42;;;;;;;6.72;100.00;99794.28;5052448;28;20112;-67
2022/11/18 06:08:08;;;;;;;9.65;3.00;;;;;;;6.75;100.00;99804.47;5052228;28;20444;-68
2022/11/18 06:10:36;;;;;;;5.93;2.95;;;;;;;6.75;100.00;99813.22;5052325;28;20476;-67
2022/11/18 06:13:06;;;;;;;9.40;3.92;;;;;;;6.75;100.00;99815.06;5052272;28;20444;-68
2022/11/18 06:15:37;;;;;;;10.52;3.83;;;;;;;6.73;100.00;99820.59;5052117;28;20028;-68
2022/11/18 06:18:15;;;;;;;10.70;3.65;;;;;;;6.72;100.00;99831.38;5052180;28;20056;-68
2022/11/18 06:20:41;;;;;;;8.73;3.90;;;;;;;6.72;100.00;99832.19;5052129;28;20048;-68
2022/11/18 06:23:06;;;;;;;7.68;2.88;;;;;;;6.68;100.00;99836.25;5052037;28;20113;-68
2022/11/18 06:25:32;;;;;;;8.45;3.20;;;;;;;6.67;100.00;99836.44;5051996;28;20171;-68
2022/11/18 06:28:00;;;;;;;7.10;2.90;;;;;;;6.66;100.00;99840.09;5052138;28;20454;-68
2022/11/18 06:30:26;;;;;;;9.20;3.35;;;;;;;6.67;100.00;99844.38;5051987;28;20064;-68
2022/11/18 06:32:51;;;;;;;6.93;3.05;;;;;;;6.66;100.00;99843.56;5051863;28;20053;-68
2022/11/18 06:35:17;;;;;;;7.68;3.35;;;;;;;6.65;100.00;99843.75;5051840;28;20044;-68
2022/11/18 06:37:42;;;;;;;8.45;3.75;;;;;;;6.65;100.00;99851.69;5051725;28;20150;-67
2022/11/18 06:40:08;;;;;;;9.80;3.67;;;;;;;6.64;100.00;99847.44;5051176;28;20029;-68
2022/11/18 06:45:17;;;;;;;7.53;2.90;;;;;;;6.62;100.00;99860.84;5051606;28;20040;-67
2022/11/18 06:47:43;;;;;;;7.30;3.30;;;;;;;6.61;100.00;99858.41;5051745;28;20033;-68
2022/11/18 06:50:09;;;;;;;7.45;3.13;;;;;;;6.58;100.00;99868.38;5051640;28;20025;-69
2022/11/18 06:52:34;;;;;;;9.60;3.28;;;;;;;6.49;100.00;99858.94;5051527;28;21130;-69
2022/11/18 06:54:59;;;;;;;9.57;3.20;;;;;;;6.53;100.00;99875.28;5050416;28;20433;-69
2022/11/18 06:57:25;;;;;;;5.75;2.97;;;;;;;6.50;100.00;99876.50;5051265;28;20075;-69
2022/11/18 06:59:50;;;;;;;7.45;3.33;;;;;;;6.48;100.00;99880.34;5050739;28;20064;-69
2022/11/18 07:02:17;;;;;;;6.70;3.33;;;;;;;6.43;100.00;99886.22;5050836;28;20029;-69
2022/11/18 07:04:46;;;;;;;6.07;3.13;;;;;;;6.44;100.00;99887.84;5051200;28;20430;-69
2022/11/18 07:07:11;;;;;;;4.65;2.63;;;;;;;6.40;100.00;99897.19;5051099;28;20185;-69
2022/11/18 07:09:36;;;;;;;5.20;2.67;;;;;;;6.41;100.00;99898.00;5051084;28;20476;-69
2022/11/18 07:12:03;;;;;;;8.02;3.70;;;;;;;6.42;100.00;99899.63;5049708;28;20093;-69
2022/11/18 07:14:28;;;;;;;5.70;3.40;;;;;;;6.41;100.00;99900.66;5050927;28;20037;-69
2022/11/18 07:16:54;;;;;;;7.53;2.72;;;;;;;6.38;100.00;99899.22;5050988;28;20033;-69
2022/11/18 07:19:19;;;;;;;8.15;4.50;;;;;;;6.36;100.00;99896.75;5050955;28;20071;-69
2022/11/18 07:21:45;;;;;;;4.43;2.33;;;;;;;6.33;100.00;99897.13;5050819;28;20021;-69
2022/11/18 07:24:13;;;;;;;5.90;2.60;;;;;;;6.47;100.00;99911.31;5050930;28;20033;-69
2022/11/18 07:26:38;;;;;;;6.85;3.33;;;;;;;6.54;100.00;99916.66;5050593;28;20029;-69
2022/11/18 07:29:03;;;;;;;7.03;3.97;;;;;;;6.56;100.00;99914.63;5050869;28;20047;-69
2022/11/18 07:31:29;;;;;;;10.70;3.30;;;;;;;6.63;100.00;99920.81;5050741;28;20035;-69
2022/11/18 07:33:55;;;;;;;5.90;2.95;;;;;;;6.68;100.00;99928.16;5050775;28;20040;-69
2022/11/18 07:36:23;;;;;;;9.48;3.70;;;;;;;6.69;100.00;99933.25;5050670;28;20052;-69
2022/11/18 07:38:49;;;;;;;8.73;3.13;;;;;;;6.71;100.00;99936.53;5051128;28;20036;-69
2022/11/18 07:41:17;;;;;;;10.35;3.83;;;;;;;6.70;100.00;99932.25;5050416;28;20036;-70
2022/11/18 07:43:43;;;;;;;14.98;4.40;;;;;;;6.71;100.00;99943.69;5050469;28;20040;-69
2022/11/18 07:46:16;;;;;;;6.43;3.22;;;;;;;6.74;100.00;99945.94;5050285;28;20037;-69
2022/11/18 07:48:44;;;;;;;6.47;3.67;;;;;;;6.78;100.00;99947.97;5050334;28;20095;-69
2022/11/18 07:51:10;;;;;;;6.90;3.55;;;;;;;6.78;100.00;99950.63;5049712;28;20064;-69
2022/11/18 07:53:36;;;;;;;10.90;3.65;;;;;;;6.84;100.00;99959.66;5048919;28;20441;-69
2022/11/18 07:56:04;;;;;;;4.65;2.95;;;;;;;6.87;100.00;99958.47;5049509;28;20139;-71
2022/11/18 07:58:29;;;;;;;10.60;5.13;;;;;;;6.89;100.00;99962.56;5047228;28;20147;-72
2022/11/18 08:00:55;;;;;;;9.82;3.08;;;;;;;6.88;100.00;99960.91;5043822;28;20558;-72
2022/11/18 08:03:25;;;;;;;9.77;3.80;;;;;;;6.84;100.00;99964.97;5048661;28;20028;-68
2022/11/18 08:05:50;;;;;;;7.93;3.70;;;;;;;6.85;100.00;99969.25;5050056;28;20525;-68
2022/11/18 08:08:16;;;;;;;5.93;3.42;;;;;;;6.84;100.00;99972.91;5049696;28;20029;-69
2022/11/18 08:10:41;;;;;;;9.45;3.20;;;;;;;6.86;100.00;99976.16;5050002;28;20041;-69
2022/11/18 08:13:06;;;;;;;9.68;3.45;;;;;;;6.90;100.00;99981.91;5050095;28;20040;-69
2022/11/18 08:15:31;;;;;;;6.97;3.13;;;;;;;6.85;100.00;99971.88;5050069;28;20024;-69
2022/11/18 08:17:57;;;;;;;8.57;3.42;;;;;;;7.01;100.00;99984.84;5049932;28;20036;-69
2022/11/18 08:20:26;;;;;;;8.40;3.72;;;;;;;7.11;100.00;99978.38;5049683;28;20029;-67
2022/11/18 08:22:51;;;;;;;6.97;3.30;;;;;;;7.28;100.00;99984.97;5049454;28;20593;-67
2022/11/18 08:25:16;;;;;;;10.90;3.65;;;;;;;7.39;100.00;99987.09;5049723;28;20048;-67
2022/11/18 08:27:42;;;;;;;10.65;3.95;;;;;;;7.52;100.00;99985.50;5048454;28;20043;-67
2022/11/18 08:30:08;;;;;;;9.98;4.05;;;;;;;7.58;100.00;99995.34;5047094;28;20111;-68
2022/11/18 08:32:33;;;;;;;9.18;3.70;;;;;;;7.59;100.00;99994.31;5041637;28;20507;-67
2022/11/18 08:34:58;;;;;;;4.95;3.03;;;;;;;7.55;100.00;99990.44;5044051;28;20025;-68
2022/11/18 08:37:24;;;;;;;6.47;3.30;;;;;;;7.50;100.00;100004.28;5043670;28;20060;-67
2022/11/18 08:39:49;;;;;;;7.10;3.58;;;;;;;7.36;100.00;99987.50;5042085;28;20087;-67
2022/11/18 08:42:14;;;;;;;6.32;3.92;;;;;;;7.44;100.00;100011.19;5043858;28;20087;-67
2022/11/18 08:44:40;;;;;;;10.85;3.85;;;;;;;7.40;100.00;100009.13;5043657;28;20028;-68
2022/11/18 08:47:05;;;;;;;9.68;3.45;;;;;;;7.36;100.00;100014.00;5042256;28;20056;-67
2022/11/18 08:49:31;;;;;;;9.68;3.30;;;;;;;7.36;100.00;100013.19;5043796;28;20017;-68
2022/11/18 08:51:56;;;;;;;7.85;4.88;;;;;;;7.33;100.00;100022.34;5042592;28;20909;-69
2022/11/18 08:54:21;;;;;;;6.38;3.03;;;;;;;7.34;100.00;100018.69;5043604;28;20064;-69
2022/11/18 08:56:49;;;;;;;9.48;4.15;;;;;;;7.36;100.00;100019.31;5043060;28;20041;-69
2022/11/18 08:59:15;;;;;;;10.98;4.47;;;;;;;7.37;100.00;100009.53;5043068;28;20111;-69
2022/11/18 09:01:42;;;;;;;8.70;4.03;;;;;;;7.52;100.00;100019.97;5042802;28;20151;-69
2022/11/18 09:04:08;;;;;;;9.48;4.30;;;;;;;7.63;100.00;100022.91;5046351;28;20025;-69
2022/11/18 09:06:33;;;;;;;5.78;3.35;;;;;;;7.74;100.00;100018.88;5047604;28;20476;-69
2022/11/18 09:08:59;;;;;;;9.50;4.07;;;;;;;7.83;100.00;100022.16;5047449;28;20043;-68
2022/11/18 09:11:26;;;;;;;7.13;4.40;;;;;;;7.89;100.00;100037.31;5047228;28;20025;-68
2022/11/18 09:13:56;;;;;;;8.25;3.50;;;;;;;7.95;100.00;100033.84;5047104;28;20484;-72
2022/11/18 09:16:22;;;;;;;9.38;4.63;;;;;;;8.07;100.00;100040.22;5053226;28;20044;-67
2022/11/18 09:18:51;;;;;;;8.50;4.75;;;;;;;8.20;100.00;100039.44;5053189;28;20029;-68
2022/11/18 09:21:17;;;;;;;9.63;3.97;;;;;;;8.35;100.00;100041.91;5053151;28;20027;-68
2022/11/18 09:23:43;;;;;;;8.57;4.15;;;;;;;8.42;100.00;100034.78;5052986;28;20025;-68
2022/11/18 09:26:11;;;;;;;11.55;3.55;;;;;;;8.44;100.00;100037.25;5052949;28;20480;-68
2022/11/18 09:28:37;;;;;;;7.82;3.05;;;;;;;8.43;100.00;100044.41;5053173;28;20473;-68
2022/11/18 09:31:07;;;;;;;6.70;3.50;;;;;;;8.44;100.00;100047.91;5053089;28;20029;-67
2022/11/18 09:33:34;;;;;;;7.10;3.70;;;;;;;8.47;100.00;100053.59;5053040;28;20033;-68
2022/11/18 09:35:59;;;;;;;6.38;3.65;;;;;;;8.53;100.00;100051.97;5052705;28;20036;-68
2022/11/18 09:38:25;;;;;;;7.05;3.65;;;;;;;8.59;100.00;100061.78;5052850;28;20029;-67
2022/11/18 09:41:05;;;;;;;7.72;3.80;;;;;;;8.74;100.00;100066.91;5052900;28;20036;-68
2022/11/18 09:43:48;;;;;;;8.07;3.70;;;;;;;8.86;100.00;100075.13;5052781;28;20025;-68
2022/11/18 09:46:24;;;;;;;9.15;3.95;;;;;;;8.92;100.00;100066.31;5052068;28;20028;-68
2022/11/18 09:51:39;;;;;;;5.70;2.90;;;;;;;9.10;100.00;100074.50;5053003;28;20036;-68
2022/11/18 09:54:10;;;;;;;10.20;3.70;;;;;;;9.16;100.00;100078.97;5052737;28;20502;-68
2022/11/18 09:56:35;;;;;;;8.70;3.70;;;;;;;9.23;100.00;100080.81;5052246;28;20510;-69
2022/11/18 09:59:03;;;;;;;8.25;3.40;;;;;;;9.35;100.00;100079.16;5052455;28;20036;-70
2022/11/18 10:01:29;;;;;;;5.93;3.67;;;;;;;9.52;100.00;100090.19;5052160;28;20397;-70
2022/11/18 10:03:54;;;;;;;6.88;4.47;;;;;;;9.60;100.00;100089.97;5052460;28;20036;-70
2022/11/18 10:06:25;;;;;;;8.35;3.08;;;;;;;9.68;100.00;100086.25;5052390;28;20029;-70
2022/11/18 10:09:04;;;;;;;10.50;3.53;;;;;;;9.68;100.00;100094.25;5052382;28;20129;-70
2022/11/18 10:11:51;;;;;;;7.30;3.55;;;;;;;9.68;100.00;100097.72;5052156;28;20029;-70
2022/11/18 10:14:34;;;;;;;9.23;3.67;;;;;;;9.63;100.00;100092.19;5051459;28;20056;-70
2022/11/18 10:17:17;;;;;;;10.20;3.63;;;;;;;9.68;100.00;100103.03;5052022;28;20020;-70
2022/11/18 10:20:04;;;;;;;10.02;3.53;;;;;;;9.75;100.00;100108.34;5051812;28;20032;-70
2022/11/18 10:22:51;;;;;;;6.13;2.95;;;;;;;9.73;100.00;100105.91;5052059;28;20037;-70
2022/11/18 10:25:17;;;;;;;9.75;4.00;;;;;;;9.63;100.00;100116.97;5051860;28;20042;-70
2022/11/18 10:27:46;;;;;;;9.23;3.60;;;;;;;9.50;100.00;100113.53;5051834;28;20029;-70
2022/11/18 10:30:19;;;;;;;10.25;3.40;;;;;;;9.48;100.00;100118.22;5051922;28;20365;-70
2022/11/18 10:33:22;;;;;;;8.05;3.53;;;;;;;9.55;100.00;100125.19;5051604;28;20025;-70
2022/11/18 10:35:48;;;;;;;5.43;3.10;;;;;;;9.76;100.00;100115.31;5051445;28;20468;-70
2022/11/18 10:38:13;;;;;;;9.82;4.05;;;;;;;10.04;100.00;100129.16;5051640;28;20091;-71
2022/11/18 10:40:51;;;;;;;12.70;3.77;;;;;;;10.13;100.00;100119.06;5051854;28;20439;-71
2022/11/18 10:43:41;;;;;;;9.07;3.78;;;;;;;10.03;100.00;100126.69;5051710;28;20654;-71
2022/11/18 10:46:27;;;;;;;9.18;3.40;;;;;;;9.92;100.00;100133.47;5051234;28;20033;-70
2022/11/18 10:49:08;;;;;;;6.82;3.58;;;;;;;9.90;100.00;100129.41;5051440;28;20086;-70
2022/11/18 10:51:37;;;;;;;8.82;3.95;;;;;;;9.91;100.00;100134.53;5051446;28;20059;-70
2022/11/18 10:54:08;;;;;;;8.75;3.85;;;;;;;9.90;100.00;100130.22;5051474;28;20075;-70
2022/11/18 10:57:13;;;;;;;7.35;3.15;;;;;;;9.88;100.00;100142.94;5051344;28;20106;-71
2022/11/18 10:59:45;;;;;;;6.95;3.78;;;;;;;9.83;100.00;100140.09;5050144;28;20581;-72
2022/11/18 11:02:19;;;;;;;10.48;3.13;;;;;;;9.92;100.00;100132.66;5051397;28;20036;-71
2022/11/18 11:04:46;;;;;;;9.00;4.03;;;;;;;9.97;100.00;100120.34;5051037;28;20024;-72
2022/11/18 11:07:15;;;;;;;8.25;3.22;;;;;;;10.09;100.00;100139.19;5051370;28;20056;-71
2022/11/18 11:09:40;;;;;;;6.65;3.80;;;;;;;10.16;100.00;100145.28;5050964;28;20111;-71
2022/11/18 11:12:15;;;;;;;11.93;3.78;;;;;;;10.18;100.00;100131.75;5051161;28;20166;-71
2022/11/18 11:14:49;;;;;;;8.90;2.80;;;;;;;10.24;100.00;100153.06;5051066;28;20043;-71
2022/11/18 11:17:25;;;;;;;10.43;2.88;;;;;;;10.23;100.00;100155.94;5051089;28;20025;-71
2022/11/18 11:20:03;;;;;;;5.82;2.72;;;;;;;10.21;100.00;100158.78;5050729;28;20104;-71
2022/11/18 11:22:28;;;;;;;4.55;3.00;;;;;;;10.17;100.00;100154.13;5050470;28;20028;-71
2022/11/18 11:24:57;;;;;;;6.85;2.40;;;;;;;10.10;100.00;100143.47;5050730;28;20864;-71
2022/11/18 11:27:22;;;;;;;5.07;3.05;;;;;;;10.09;100.00;100153.31;5049342;28;20068;-71
2022/11/18 11:30:00;;;;;;;10.70;4.70;;;;;;;10.11;100.00;100158.41;5050891;28;20122;-71
2022/11/18 11:32:59;;;;;;;8.13;3.35;;;;;;;10.04;100.00;100153.13;5050589;28;20033;-71
2022/11/18 11:35:47;;;;;;;4.28;2.55;;;;;;;9.95;100.00;100157.03;5050792;28;20032;-71
2022/11/18 11:38:35;;;;;;;7.55;2.88;;;;;;;9.85;100.00;100164.63;5050768;28;21011;-71
2022/11/18 11:41:17;;;;;;;3.78;2.45;;;;;;;9.82;100.00;100165.91;5050570;28;20024;-71
2022/11/18 11:44:16;;;;;;;8.43;3.20;;;;;;;9.80;100.00;100175.94;5050653;28;20108;-71
2022/11/18 11:50:15;;;;;;;10.20;3.38;;;;;;;9.93;100.00;100174.25;5050835;28;20044;-71
2022/11/18 11:53:09;;;;;;;10.25;3.10;;;;;;;9.95;100.00;100175.69;5050034;28;20075;-71
2022/11/18 11:55:54;;;;;;;8.15;3.28;;;;;;;10.04;100.00;100171.78;5045621;28;20033;-71
2022/11/18 11:59:02;;;;;;;13.07;3.88;;;;;;;10.18;100.00;100174.38;5050200;28;20055;-71
2022/11/18 12:01:39;;;;;;;13.23;3.13;;;;;;;10.18;100.00;100167.22;5045534;28;20021;-74